createdAt,value
2022-12-24T00:03:30.083Z,3.10
2022-12-24T00:08:32.244Z,3.20
2022-12-24T00:13:34.504Z,3.30
2022-12-24T00:18:41.542Z,3.30
2022-12-24T00:23:47.360Z,3.40
2022-12-24T00:28:49.379Z,3.10
2022-12-24T00:33:51.855Z,3.00
2022-12-24T00:38:53.746Z,2.90
2022-12-24T00:43:57.224Z,2.90
2022-12-24T00:48:59.720Z,3.00
2022-12-24T00:54:01.738Z,2.80
2022-12-24T00:59:03.659Z,2.70
2022-12-24T01:04:24.556Z,2.80
2022-12-24T01:09:26.449Z,2.70
2022-12-24T01:14:28.352Z,2.60
2022-12-24T01:19:30.393Z,2.70
2022-12-24T01:24:32.315Z,2.80
2022-12-24T01:29:34.218Z,2.90
2022-12-24T01:34:36.478Z,3.20
2022-12-24T01:39:38.598Z,3.20
2022-12-24T01:44:43.479Z,3.00
2022-12-24T01:49:53.449Z,3.10
2022-12-24T01:55:06.514Z,3.10
2022-12-24T02:00:12.850Z,3.10
2022-12-24T02:05:22.583Z,3.10
2022-12-24T02:10:24.681Z,3.00
2022-12-24T02:15:34.512Z,3.00
2022-12-24T02:21:20.681Z,2.80
2022-12-24T02:26:51.856Z,2.80
2022-12-24T02:32:05.071Z,3.00
2022-12-24T02:37:08.876Z,3.10
2022-12-24T02:42:14.654Z,3.10
2022-12-24T02:47:19.684Z,3.00
2022-12-24T02:52:41.669Z,3.20
2022-12-24T02:57:43.532Z,3.00
2022-12-24T03:03:23.073Z,3.00
2022-12-24T03:08:35.999Z,2.90
2022-12-24T03:13:38.356Z,3.10
2022-12-24T03:18:44.160Z,3.20
2022-12-24T03:23:46.165Z,3.00
2022-12-24T03:28:48.985Z,3.10
2022-12-24T03:33:51.401Z,3.00
2022-12-24T03:38:53.277Z,3.20
2022-12-24T03:43:55.240Z,3.20
2022-12-24T03:48:58.282Z,3.00
2022-12-24T03:54:00.523Z,3.00
2022-12-24T03:59:02.521Z,3.20
2022-12-24T04:04:04.440Z,3.50
2022-12-24T04:09:06.381Z,3.30
2022-12-24T04:14:08.417Z,3.60
2022-12-24T04:19:10.368Z,3.60
2022-12-24T04:24:12.270Z,3.70
2022-12-24T04:29:14.262Z,4.10
2022-12-24T04:34:16.204Z,4.60
2022-12-24T04:39:18.200Z,5.00
2022-12-24T04:44:20.127Z,5.10
2022-12-24T04:49:22.053Z,5.30
2022-12-24T04:54:24.173Z,5.40
2022-12-24T04:59:26.114Z,5.50
2022-12-24T05:04:28.031Z,5.50
2022-12-24T05:09:29.982Z,5.60
2022-12-24T05:14:31.900Z,5.60
2022-12-24T05:19:33.857Z,5.70
2022-12-24T05:24:54.255Z,5.70
2022-12-24T05:29:56.189Z,5.80
2022-12-24T05:34:58.079Z,5.70
2022-12-24T05:40:00.023Z,5.80
2022-12-24T05:45:02.111Z,5.90
2022-12-24T05:50:04.419Z,5.90
2022-12-24T05:55:06.917Z,5.90
2022-12-24T06:00:09.593Z,5.90
2022-12-24T06:05:14.327Z,5.90
2022-12-24T06:10:16.520Z,5.90
2022-12-24T06:15:23.752Z,5.90
2022-12-24T06:20:26.151Z,5.70
2022-12-24T06:25:28.120Z,5.70
2022-12-24T06:30:30.047Z,5.70
2022-12-24T06:35:33.147Z,5.70
2022-12-24T06:40:35.149Z,5.80
2022-12-24T06:45:37.521Z,5.60
2022-12-24T06:50:39.707Z,5.90
2022-12-24T06:55:41.639Z,5.80
2022-12-24T07:00:43.519Z,5.90
2022-12-24T07:05:45.409Z,5.90
2022-12-24T07:10:54.145Z,5.90
2022-12-24T07:16:01.504Z,6.00
2022-12-24T07:21:05.483Z,6.20
2022-12-24T07:26:07.685Z,6.30
2022-12-24T07:31:09.653Z,6.30
2022-12-24T07:36:18.364Z,6.30
2022-12-24T07:41:20.752Z,6.40
2022-12-24T07:46:22.983Z,6.40
2022-12-24T07:51:25.057Z,6.50
2022-12-24T07:56:26.965Z,6.60
2022-12-24T08:01:29.017Z,6.80
2022-12-24T08:06:31.097Z,6.80
2022-12-24T08:11:33.238Z,6.90
2022-12-24T08:16:35.246Z,6.90
2022-12-24T08:21:37.278Z,6.90
2022-12-24T08:26:39.409Z,7.00
2022-12-24T08:31:42.299Z,7.10
2022-12-24T08:36:44.263Z,7.40
2022-12-24T08:41:46.204Z,7.40
2022-12-24T08:46:48.249Z,7.40
2022-12-24T08:51:51.975Z,7.80
2022-12-24T08:56:53.885Z,7.90
2022-12-24T09:01:56.120Z,8.10
2022-12-24T09:06:58.124Z,8.00
2022-12-24T09:12:00.099Z,7.90
2022-12-24T09:17:02.086Z,7.90
2022-12-24T09:22:04.120Z,7.90
2022-12-24T09:27:06.072Z,7.80
2022-12-24T09:32:08.489Z,7.70
2022-12-24T09:37:10.509Z,7.60
2022-12-24T09:42:41.145Z,7.60
2022-12-24T09:48:01.679Z,7.70
2022-12-24T09:53:13.652Z,7.70
2022-12-24T09:58:30.943Z,7.80
2022-12-24T10:03:33.170Z,7.70
2022-12-24T10:09:02.888Z,7.80
2022-12-24T10:14:26.892Z,7.90
2022-12-24T10:20:04.575Z,8.00
2022-12-24T10:25:37.914Z,8.00
2022-12-24T10:30:40.047Z,7.90
2022-12-24T10:35:47.577Z,7.80
2022-12-24T10:40:52.785Z,7.90
2022-12-24T10:46:01.452Z,7.90
2022-12-24T10:51:07.750Z,8.00
2022-12-24T10:56:12.885Z,8.10
2022-12-24T11:01:14.928Z,7.90
2022-12-24T11:06:22.702Z,7.90
2022-12-24T11:11:24.977Z,7.90
2022-12-24T11:16:33.606Z,7.80
2022-12-24T11:21:39.654Z,7.50
2022-12-24T11:26:43.898Z,7.40
2022-12-24T11:31:46.955Z,7.20
2022-12-24T11:36:50.426Z,7.30
2022-12-24T11:41:53.788Z,7.40
2022-12-24T11:46:59.055Z,7.40
2022-12-24T11:52:04.528Z,7.40
2022-12-24T11:57:09.449Z,7.30
2022-12-24T12:02:14.739Z,7.20
2022-12-24T12:07:25.496Z,7.20
2022-12-24T12:12:34.846Z,7.10
2022-12-24T12:17:50.269Z,7.00
2022-12-24T12:23:09.820Z,6.90
2022-12-24T12:28:23.387Z,6.80
2022-12-24T12:33:41.491Z,6.90
2022-12-24T12:38:43.441Z,6.80
2022-12-24T12:43:56.929Z,6.80
2022-12-24T12:49:20.990Z,6.80
2022-12-24T12:55:04.895Z,6.90
2022-12-24T13:00:10.863Z,6.90
2022-12-24T13:05:44.030Z,6.80
2022-12-24T13:11:09.402Z,6.80
2022-12-24T13:16:17.175Z,6.80
2022-12-24T13:21:23.106Z,6.90
2022-12-24T13:26:25.106Z,6.80
2022-12-24T13:31:28.919Z,6.80
2022-12-24T13:37:00.730Z,6.70
2022-12-24T13:42:02.693Z,6.60
2022-12-24T13:47:07.601Z,6.60
2022-12-24T13:52:12.577Z,6.70
2022-12-24T13:57:44.817Z,6.70
2022-12-24T14:02:58.465Z,6.80
2022-12-24T14:08:05.005Z,6.80
2022-12-24T14:13:26.971Z,6.80
2022-12-24T14:18:30.697Z,6.90
2022-12-24T14:23:54.122Z,6.80
2022-12-24T14:28:57.896Z,6.80
2022-12-24T14:34:13.695Z,6.80
2022-12-24T14:39:35.869Z,6.80
2022-12-24T14:45:03.709Z,6.70
2022-12-24T14:50:28.892Z,6.70
2022-12-24T14:55:41.229Z,6.80
2022-12-24T15:00:43.718Z,6.70
2022-12-24T15:05:50.237Z,6.70
2022-12-24T15:10:55.402Z,6.60
2022-12-24T15:15:58.057Z,6.60
2022-12-24T15:21:05.674Z,6.70
2022-12-24T15:26:07.749Z,6.70
2022-12-24T15:31:20.276Z,6.70
2022-12-24T15:36:40.469Z,6.70
2022-12-24T15:42:03.460Z,6.70
2022-12-24T15:47:13.975Z,6.80
2022-12-24T15:52:19.192Z,6.70
2022-12-24T15:57:25.856Z,6.70
2022-12-24T16:02:33.819Z,6.80
2022-12-24T16:07:56.993Z,6.70
2022-12-24T16:13:00.111Z,6.80
2022-12-24T16:18:02.085Z,6.70
2022-12-24T16:23:04.001Z,6.70
2022-12-24T16:28:15.161Z,6.50
2022-12-24T16:33:21.865Z,6.40
2022-12-24T16:38:24.028Z,6.50
2022-12-24T16:43:44.280Z,6.60
2022-12-24T16:48:48.550Z,6.60
2022-12-24T16:53:50.598Z,6.70
2022-12-24T16:58:52.497Z,6.60
2022-12-24T17:03:54.483Z,6.60
2022-12-24T17:08:56.408Z,6.50
2022-12-24T17:13:58.533Z,6.40
2022-12-24T17:19:00.419Z,6.50
2022-12-24T17:24:02.417Z,6.40
2022-12-24T17:29:05.341Z,6.30
2022-12-24T17:34:07.450Z,6.20
2022-12-24T17:39:09.933Z,6.30
2022-12-24T17:44:15.518Z,6.30
2022-12-24T17:49:17.544Z,6.30
2022-12-24T17:54:19.567Z,6.30
2022-12-24T17:59:21.534Z,6.20
2022-12-24T18:04:23.545Z,6.20
2022-12-24T18:09:25.445Z,6.20
2022-12-24T18:14:27.896Z,6.10
2022-12-24T18:19:29.927Z,6.00
2022-12-24T18:24:31.825Z,5.90
2022-12-24T18:29:33.762Z,5.90
2022-12-24T18:34:35.818Z,5.80
2022-12-24T18:39:37.749Z,5.70
2022-12-24T18:44:40.386Z,5.60
2022-12-24T18:49:42.313Z,5.50
2022-12-24T18:54:44.488Z,5.50
2022-12-24T18:59:46.381Z,5.40
2022-12-24T19:04:48.364Z,5.30
2022-12-24T19:09:50.322Z,5.20
2022-12-24T19:14:52.209Z,5.20
2022-12-24T19:19:54.217Z,5.20
2022-12-24T19:24:56.140Z,5.10
2022-12-24T19:29:58.073Z,5.00
2022-12-24T19:34:59.983Z,5.00
2022-12-24T19:40:01.908Z,5.00
2022-12-24T19:45:04.017Z,4.90
2022-12-24T19:50:06.703Z,5.10
2022-12-24T19:55:09.694Z,5.10
2022-12-24T20:00:12.003Z,5.20
2022-12-24T20:05:17.027Z,5.10
2022-12-24T20:10:19.560Z,5.10
2022-12-24T20:15:21.527Z,5.20
2022-12-24T20:20:23.444Z,5.10
2022-12-24T20:25:27.990Z,5.20
2022-12-24T20:30:30.397Z,5.30
2022-12-24T20:35:35.775Z,5.40
2022-12-24T20:40:42.082Z,5.40
2022-12-24T20:45:49.837Z,5.40
2022-12-24T20:50:51.993Z,5.50
2022-12-24T20:55:54.392Z,5.60
2022-12-24T21:00:56.535Z,5.50
2022-12-24T21:05:59.219Z,5.30
2022-12-24T21:11:19.639Z,5.30
2022-12-24T21:16:22.874Z,5.30
2022-12-24T21:21:24.838Z,5.30
2022-12-24T21:26:26.838Z,5.30
2022-12-24T21:31:28.859Z,5.40
2022-12-24T21:36:30.905Z,5.40
2022-12-24T21:41:32.856Z,5.40
2022-12-24T21:46:34.848Z,5.40
2022-12-24T21:51:37.342Z,5.50
2022-12-24T21:56:58.417Z,5.40
2022-12-24T22:02:00.760Z,5.40
2022-12-24T22:07:21.919Z,5.30
2022-12-24T22:12:24.512Z,5.40
2022-12-24T22:17:27.976Z,5.30
2022-12-24T22:22:30.048Z,5.30
2022-12-24T22:27:31.975Z,5.20
2022-12-24T22:32:34.181Z,5.30
2022-12-24T22:37:36.112Z,5.30
2022-12-24T22:42:38.174Z,5.30
2022-12-24T22:47:40.462Z,5.20
2022-12-24T22:52:42.498Z,5.00
2022-12-24T22:57:44.472Z,4.90
2022-12-24T23:02:46.474Z,5.00
2022-12-24T23:07:48.524Z,5.00
2022-12-24T23:13:14.559Z,5.10
2022-12-24T23:18:17.181Z,5.20
2022-12-24T23:23:19.156Z,5.10
2022-12-24T23:28:21.099Z,5.10
2022-12-24T23:33:23.049Z,5.20
2022-12-24T23:38:25.213Z,5.20
2022-12-24T23:43:27.739Z,5.20
2022-12-24T23:48:29.908Z,5.10
2022-12-24T23:53:31.836Z,5.20
2022-12-24T23:58:34.111Z,5.20
